Time;durP1;ratioP1;P1;durP2;ratioP2;P2;SDS_P1;SDS_P2;PMS_P1;PMS_P2;Temp;Humidity;BMP_temperature;BMP_pressure;BME280_temperature;BME280_humidity;BME280_pressure;Samples;Min_cycle;Max_cycle;Signal;HPM_P1;HPM_P2
2021/08/15 00:00:30;;;;;;;6.20;3.90;;;19.10;72.30;;;;;;5117393;27;20483;-78
2021/08/15 00:02:56;;;;;;;5.88;4.47;;;19.10;72.20;;;;;;5117459;27;20046;-78
2021/08/15 00:05:22;;;;;;;6.20;3.78;;;19.20;72.20;;;;;;5117502;27;20031;-78
2021/08/15 00:07:47;;;;;;;5.50;4.00;;;19.20;72.10;;;;;;5117445;27;20023;-77
2021/08/15 00:10:13;;;;;;;6.47;4.03;;;19.20;72.10;;;;;;5118206;27;20019;-77
2021/08/15 00:12:39;;;;;;;7.97;4.43;;;19.20;72.00;;;;;;5116454;27;20471;-77
2021/08/15 00:15:10;;;;;;;6.50;3.92;;;19.20;72.10;;;;;;5117739;27;20023;-77
2021/08/15 00:17:36;;;;;;;6.60;3.90;;;19.30;72.20;;;;;;5117499;27;20103;-78
2021/08/15 00:20:03;;;;;;;4.78;3.55;;;19.20;72.10;;;;;;5116877;27;20085;-77
2021/08/15 00:22:29;;;;;;;6.45;4.13;;;19.20;72.20;;;;;;5117445;27;20034;-78
2021/08/15 00:24:55;;;;;;;8.90;4.20;;;19.20;72.20;;;;;;5117053;27;20024;-78
2021/08/15 00:27:20;;;;;;;7.32;4.10;;;19.20;72.20;;;;;;5117275;27;20038;-78
2021/08/15 00:29:46;;;;;;;7.25;4.50;;;19.20;72.30;;;;;;5116971;27;20027;-78
2021/08/15 00:32:12;;;;;;;8.43;4.20;;;19.10;72.30;;;;;;5117375;27;20344;-77
2021/08/15 00:34:37;;;;;;;5.45;4.00;;;19.20;72.40;;;;;;5116785;27;20123;-77
2021/08/15 00:37:03;;;;;;;5.97;4.15;;;19.10;72.40;;;;;;5116854;27;20015;-78
2021/08/15 00:39:29;;;;;;;6.85;4.18;;;19.10;72.40;;;;;;5116650;27;20100;-77
2021/08/15 00:41:54;;;;;;;5.60;4.10;;;19.10;72.40;;;;;;5117070;27;20519;-77
2021/08/15 00:44:20;;;;;;;7.80;4.93;;;19.10;72.50;;;;;;5116676;27;20080;-77
2021/08/15 00:46:48;;;;;;;7.05;4.50;;;19.10;72.50;;;;;;5116678;27;20096;-78
2021/08/15 00:49:14;;;;;;;6.47;4.68;;;19.10;72.60;;;;;;5115858;27;20063;-78
2021/08/15 00:51:39;;;;;;;6.28;4.18;;;19.10;72.60;;;;;;5116555;27;20070;-78
2021/08/15 00:54:05;;;;;;;6.65;4.30;;;19.00;72.60;;;;;;5116499;27;20081;-78
2021/08/15 00:56:32;;;;;;;6.97;4.43;;;19.00;72.70;;;;;;5116558;27;20035;-78
2021/08/15 00:59:00;;;;;;;6.38;4.00;;;19.00;72.80;;;;;;5116380;27;20030;-78
2021/08/15 01:01:27;;;;;;;5.72;4.07;;;19.00;72.90;;;;;;5116085;27;20027;-78
2021/08/15 01:03:52;;;;;;;6.72;3.90;;;19.00;72.90;;;;;;5134559;27;20027;-78
2021/08/15 01:06:25;;;;;;;5.55;4.15;;;19.10;72.90;;;;;;5116184;27;20023;-78
2021/08/15 01:08:51;;;;;;;6.35;3.95;;;19.10;72.90;;;;;;5116222;27;20034;-78
2021/08/15 01:11:16;;;;;;;6.72;4.13;;;19.10;72.90;;;;;;5116401;27;20027;-78
2021/08/15 01:13:42;;;;;;;7.35;4.28;;;19.10;72.90;;;;;;5116304;27;20019;-78
2021/08/15 01:16:11;;;;;;;5.50;4.00;;;19.10;72.90;;;;;;5134682;27;20035;-78
2021/08/15 01:18:39;;;;;;;6.50;3.88;;;19.20;73.00;;;;;;5134242;27;20410;-78
2021/08/15 01:21:07;;;;;;;8.77;4.10;;;19.20;73.00;;;;;;5134785;27;20015;-78
2021/08/15 01:23:34;;;;;;;6.97;4.30;;;19.20;73.00;;;;;;5115995;27;20496;-78
2021/08/15 01:26:01;;;;;;;6.35;4.10;;;19.20;73.10;;;;;;5115739;27;20137;-78
2021/08/15 01:28:27;;;;;;;5.63;3.75;;;19.10;73.00;;;;;;5134470;27;20076;-78
2021/08/15 01:30:54;;;;;;;7.82;4.03;;;19.20;73.10;;;;;;5115787;27;20031;-78
2021/08/15 01:33:28;;;;;;;6.70;3.95;;;19.10;73.10;;;;;;5134287;27;20033;-78
2021/08/15 01:35:55;;;;;;;6.95;4.07;;;19.10;73.30;;;;;;5115831;27;20113;-78
2021/08/15 01:38:22;;;;;;;5.20;3.60;;;19.00;73.40;;;;;;5115654;27;20058;-78
2021/08/15 01:40:49;;;;;;;4.68;3.25;;;19.00;73.40;;;;;;5115397;27;20053;-78
2021/08/15 01:43:14;;;;;;;6.45;3.75;;;18.90;73.50;;;;;;5134190;27;20069;-78
2021/08/15 01:45:40;;;;;;;5.53;3.40;;;19.00;73.60;;;;;;5115539;27;20027;-78
2021/08/15 01:48:06;;;;;;;5.07;3.60;;;18.90;73.60;;;;;;5134076;27;20027;-78
2021/08/15 01:50:32;;;;;;;5.35;3.50;;;18.90;73.70;;;;;;5115819;27;20491;-77
2021/08/15 01:52:57;;;;;;;7.07;3.70;;;18.90;73.70;;;;;;5133738;27;20032;-78
2021/08/15 01:55:23;;;;;;;6.03;3.67;;;18.90;73.80;;;;;;5115461;28;20050;-78
2021/08/15 01:57:49;;;;;;;5.20;3.47;;;18.90;73.80;;;;;;5115510;28;20027;-77
2021/08/15 02:00:15;;;;;;;8.27;3.80;;;18.90;73.90;;;;;;5133899;27;20121;-77
2021/08/15 02:02:44;;;;;;;7.30;3.80;;;18.90;73.90;;;;;;5133930;28;20027;-78
2021/08/15 02:05:16;;;;;;;5.15;3.38;;;18.90;74.00;;;;;;5115358;28;20038;-77
2021/08/15 02:07:42;;;;;;;6.85;3.65;;;18.80;74.00;;;;;;5133673;28;20050;-77
2021/08/15 02:10:08;;;;;;;5.85;3.95;;;18.80;74.00;;;;;;5115432;28;20096;-79
2021/08/15 02:12:33;;;;;;;4.63;3.22;;;18.80;74.10;;;;;;5115362;28;20525;-79
2021/08/15 02:14:59;;;;;;;5.00;3.35;;;18.80;74.20;;;;;;5115357;28;20027;-79
2021/08/15 02:17:25;;;;;;;4.95;3.60;;;18.80;74.20;;;;;;5115559;28;20100;-78
2021/08/15 02:19:50;;;;;;;5.05;3.55;;;18.80;74.30;;;;;;5115114;28;20051;-78
2021/08/15 02:22:16;;;;;;;5.88;3.55;;;18.80;74.30;;;;;;5115582;28;20047;-79
2021/08/15 02:24:42;;;;;;;3.75;3.20;;;18.80;74.40;;;;;;5115091;28;20038;-79
2021/08/15 02:27:07;;;;;;;6.68;3.97;;;18.80;74.40;;;;;;5115437;28;20027;-79
2021/08/15 02:29:33;;;;;;;6.13;3.92;;;18.80;74.40;;;;;;5116000;28;20034;-79
2021/08/15 02:31:58;;;;;;;5.82;3.70;;;18.80;74.40;;;;;;5115265;28;20084;-78
2021/08/15 02:34:26;;;;;;;5.05;3.38;;;18.80;74.40;;;;;;5115476;28;20130;-78
2021/08/15 02:36:52;;;;;;;5.13;3.35;;;18.80;74.40;;;;;;5137273;27;20371;-79
2021/08/15 02:39:18;;;;;;;5.68;3.92;;;18.80;74.50;;;;;;5118878;27;20080;-78
2021/08/15 02:41:43;;;;;;;5.00;3.38;;;18.70;74.50;;;;;;5119743;27;20027;-79
2021/08/15 02:44:09;;;;;;;6.53;4.05;;;18.70;74.60;;;;;;5118925;27;20023;-79
2021/08/15 02:46:34;;;;;;;4.50;3.45;;;18.70;74.60;;;;;;5137409;27;20375;-78
2021/08/15 02:49:00;;;;;;;5.72;3.70;;;18.70;74.70;;;;;;5119331;27;20358;-78
2021/08/15 02:51:25;;;;;;;5.70;3.70;;;18.60;74.70;;;;;;5118862;27;20117;-78
2021/08/15 02:53:53;;;;;;;5.00;3.70;;;18.60;74.70;;;;;;5118880;27;20486;-78
2021/08/15 02:56:18;;;;;;;3.97;3.25;;;18.60;74.70;;;;;;5137039;27;20035;-78
2021/08/15 02:58:48;;;;;;;5.47;3.28;;;18.60;74.80;;;;;;5118610;27;20030;-78
2021/08/15 03:01:13;;;;;;;3.75;3.10;;;18.60;74.90;;;;;;5118649;27;20482;-78
2021/08/15 03:03:39;;;;;;;5.47;3.20;;;18.60;74.90;;;;;;5118721;27;20034;-78
2021/08/15 03:06:05;;;;;;;6.32;3.45;;;18.50;74.90;;;;;;5137267;27;20415;-77
2021/08/15 03:08:30;;;;;;;5.72;3.80;;;18.50;75.00;;;;;;5118456;27;20419;-78
2021/08/15 03:10:56;;;;;;;5.63;3.55;;;18.50;75.10;;;;;;5118274;27;20027;-78
2021/08/15 03:13:22;;;;;;;5.50;3.88;;;18.40;75.10;;;;;;5118221;27;20030;-78
2021/08/15 03:15:47;;;;;;;7.60;3.60;;;18.40;75.10;;;;;;5118427;27;20068;-78
2021/08/15 03:18:16;;;;;;;6.25;3.60;;;18.40;75.10;;;;;;5118208;27;20023;-78
2021/08/15 03:20:43;;;;;;;5.28;4.07;;;18.40;75.20;;;;;;5118155;27;20108;-78
2021/08/15 03:23:08;;;;;;;6.55;3.85;;;18.40;75.30;;;;;;5117985;27;20466;-78
2021/08/15 03:25:37;;;;;;;4.93;3.70;;;18.40;75.40;;;;;;5118110;27;20023;-78
2021/08/15 03:28:04;;;;;;;5.93;3.50;;;18.40;75.30;;;;;;5117860;27;20035;-77
2021/08/15 03:30:29;;;;;;;5.85;3.60;;;18.40;75.30;;;;;;5118060;27;20118;-77
2021/08/15 03:36:17;;;;;;;6.05;3.67;;;18.30;75.50;;;;;;5136717;27;20071;-78
2021/08/15 03:38:43;;;;;;;6.20;4.00;;;18.30;75.50;;;;;;5117695;27;20027;-78
2021/08/15 03:41:09;;;;;;;5.03;3.42;;;18.20;75.50;;;;;;5136343;27;20023;-78
2021/08/15 03:43:35;;;;;;;5.57;3.70;;;18.20;75.50;;;;;;5117693;27;20022;-77
2021/08/15 03:46:00;;;;;;;5.95;3.78;;;18.20;75.60;;;;;;5117696;27;20076;-79
2021/08/15 03:48:26;;;;;;;5.07;3.42;;;18.20;75.60;;;;;;5136154;27;20027;-78
2021/08/15 03:50:52;;;;;;;5.85;3.70;;;18.20;75.70;;;;;;5117810;27;20437;-78
2021/08/15 03:53:17;;;;;;;6.00;3.55;;;18.20;75.70;;;;;;5117761;27;20027;-78
2021/08/15 03:55:43;;;;;;;6.22;3.80;;;18.20;75.80;;;;;;5136106;27;20024;-78
2021/08/15 03:58:12;;;;;;;7.57;3.60;;;18.10;75.80;;;;;;5117744;27;20022;-78
2021/08/15 04:00:40;;;;;;;4.85;3.75;;;18.10;75.90;;;;;;5117722;27;20405;-78
2021/08/15 04:03:11;;;;;;;4.72;3.70;;;18.10;76.00;;;;;;5117882;27;20011;-78
2021/08/15 04:05:37;;;;;;;6.03;3.90;;;18.10;76.00;;;;;;5135862;27;20023;-78
2021/08/15 04:08:05;;;;;;;6.03;3.90;;;18.10;76.00;;;;;;5117348;27;20051;-77
2021/08/15 04:10:31;;;;;;;7.00;3.85;;;18.10;76.00;;;;;;5117358;27;20028;-78
2021/08/15 04:12:57;;;;;;;6.35;4.20;;;18.10;76.00;;;;;;5117292;27;20110;-78
2021/08/15 04:15:22;;;;;;;6.55;4.07;;;18.10;76.00;;;;;;5117482;27;20058;-78
2021/08/15 04:17:48;;;;;;;6.50;3.83;;;18.10;76.00;;;;;;5117145;27;20101;-78
2021/08/15 04:20:14;;;;;;;6.97;4.05;;;18.20;76.00;;;;;;5117058;27;20015;-78
2021/08/15 04:22:39;;;;;;;6.60;4.72;;;18.20;76.00;;;;;;5135694;27;20019;-78
2021/08/15 04:28:27;;;;;;;6.22;3.75;;;18.20;76.00;;;;;;5135743;27;20503;-78
2021/08/15 04:30:53;;;;;;;6.82;4.35;;;18.20;75.90;;;;;;5116979;27;20106;-77
2021/08/15 04:33:20;;;;;;;7.20;4.45;;;18.20;75.90;;;;;;5117033;27;20067;-77
2021/08/15 04:35:47;;;;;;;7.00;4.03;;;18.20;76.00;;;;;;5135240;27;20045;-77
2021/08/15 04:38:13;;;;;;;7.90;4.68;;;18.20;76.00;;;;;;5116769;27;20023;-77
2021/08/15 04:40:38;;;;;;;6.25;4.55;;;18.30;76.00;;;;;;5135550;27;20058;-78
2021/08/15 04:43:04;;;;;;;5.80;4.68;;;18.30;76.00;;;;;;5116714;27;20036;-78
2021/08/15 04:48:51;;;;;;;7.70;4.85;;;18.30;76.00;;;;;;5135442;27;20072;-78
2021/08/15 04:51:17;;;;;;;8.27;5.70;;;18.30;75.90;;;;;;5135040;27;20389;-77
2021/08/15 04:53:43;;;;;;;8.15;5.10;;;18.30;75.90;;;;;;5116526;27;20076;-78
2021/08/15 04:56:08;;;;;;;7.68;5.30;;;18.40;76.00;;;;;;5116382;27;20658;-78
2021/08/15 05:01:56;;;;;;;10.60;5.30;;;18.40;76.00;;;;;;5134757;27;20018;-78
2021/08/15 05:04:22;;;;;;;7.00;5.22;;;18.40;75.90;;;;;;5116367;27;20039;-78
2021/08/15 05:06:48;;;;;;;6.57;4.95;;;18.40;75.90;;;;;;5116423;27;20019;-77
2021/08/15 05:09:14;;;;;;;6.47;5.07;;;18.40;75.90;;;;;;5116041;27;20052;-78
2021/08/15 05:11:39;;;;;;;7.95;5.10;;;18.50;75.90;;;;;;5116091;27;20015;-78
2021/08/15 05:14:06;;;;;;;10.88;5.80;;;18.50;75.90;;;;;;5134400;27;20455;-77
2021/08/15 05:16:32;;;;;;;7.65;5.78;;;18.50;75.80;;;;;;5116360;27;20023;-77
2021/08/15 05:18:58;;;;;;;7.85;5.70;;;18.50;75.80;;;;;;5115861;27;20050;-77
2021/08/15 05:21:23;;;;;;;8.63;5.15;;;18.60;75.80;;;;;;5116083;27;20546;-78
2021/08/15 05:23:49;;;;;;;9.85;5.70;;;18.60;75.70;;;;;;5115841;27;20113;-77
2021/08/15 05:26:14;;;;;;;8.43;6.28;;;18.60;75.70;;;;;;5115882;27;20426;-77
2021/08/15 05:28:40;;;;;;;9.20;5.90;;;18.60;75.70;;;;;;5115876;27;20114;-77
2021/08/15 05:31:06;;;;;;;10.10;5.50;;;18.60;75.60;;;;;;5115655;27;20053;-77
2021/08/15 05:33:31;;;;;;;8.00;5.82;;;18.60;75.60;;;;;;5115752;27;20023;-77
2021/08/15 05:35:58;;;;;;;8.45;5.80;;;18.70;75.60;;;;;;5134095;27;20027;-77
2021/08/15 05:38:24;;;;;;;8.18;5.70;;;18.60;75.50;;;;;;5133911;27;20050;-77
2021/08/15 05:40:49;;;;;;;9.95;6.40;;;18.60;75.50;;;;;;5115472;27;20039;-77
2021/08/15 05:43:15;;;;;;;7.10;5.85;;;18.60;75.50;;;;;;5115455;27;20019;-78
2021/08/15 05:45:41;;;;;;;8.52;5.95;;;18.60;75.50;;;;;;5133983;27;20012;-77
2021/08/15 05:48:07;;;;;;;7.40;5.60;;;18.70;75.50;;;;;;5115326;27;20072;-77
2021/08/15 05:50:34;;;;;;;9.30;5.70;;;18.70;75.40;;;;;;5133840;27;20031;-77
2021/08/15 05:52:59;;;;;;;9.00;6.45;;;18.70;75.40;;;;;;5133789;27;20023;-78
2021/08/15 05:55:25;;;;;;;8.85;6.10;;;18.80;75.40;;;;;;5115393;27;20034;-77
2021/08/15 05:57:51;;;;;;;9.75;6.47;;;18.70;75.30;;;;;;5115359;28;20030;-77
2021/08/15 06:00:17;;;;;;;8.65;6.28;;;18.80;75.30;;;;;;5133711;27;20034;-77
2021/08/15 06:02:43;;;;;;;10.02;7.18;;;18.80;75.40;;;;;;5133628;27;20076;-77
2021/08/15 06:05:13;;;;;;;10.70;7.07;;;18.80;75.30;;;;;;5115326;28;20019;-77
2021/08/15 06:07:40;;;;;;;8.27;6.35;;;18.80;75.30;;;;;;5115056;28;20023;-77
2021/08/15 06:10:07;;;;;;;10.70;6.97;;;18.90;75.30;;;;;;5116456;27;20071;-77
2021/08/15 06:12:38;;;;;;;8.15;6.60;;;18.90;75.20;;;;;;5119609;27;20030;-77
2021/08/15 06:15:06;;;;;;;9.23;6.47;;;19.00;75.10;;;;;;5137983;27;20099;-77
2021/08/15 06:17:31;;;;;;;9.55;6.35;;;19.00;75.60;;;;;;5119435;27;20034;-77
2021/08/15 06:19:58;;;;;;;9.60;6.63;;;19.10;74.90;;;;;;5119389;27;20027;-78
2021/08/15 06:22:24;;;;;;;10.45;6.95;;;19.10;74.80;;;;;;5119542;27;20060;-78
2021/08/15 06:24:50;;;;;;;11.52;7.10;;;19.20;74.80;;;;;;5119280;27;20052;-78
2021/08/15 06:27:15;;;;;;;10.93;7.57;;;19.20;74.80;;;;;;5137771;27;20027;-78
2021/08/15 06:29:41;;;;;;;8.57;6.97;;;19.20;74.80;;;;;;5119306;27;20537;-78
2021/08/15 06:32:07;;;;;;;12.65;8.10;;;19.30;74.80;;;;;;5119132;27;20027;-77
2021/08/15 06:34:33;;;;;;;10.23;7.88;;;19.30;74.70;;;;;;5137778;27;20023;-78
2021/08/15 06:36:58;;;;;;;8.45;6.82;;;19.20;74.80;;;;;;5118966;27;20035;-78
2021/08/15 06:39:26;;;;;;;9.90;7.90;;;19.20;74.80;;;;;;5119102;27;20089;-78
2021/08/15 06:41:52;;;;;;;10.43;7.90;;;19.30;75.50;;;;;;5119283;27;20023;-78
2021/08/15 06:44:17;;;;;;;10.10;6.95;;;19.40;74.90;;;;;;5118760;27;20466;-78
2021/08/15 06:46:43;;;;;;;9.77;7.13;;;19.40;74.70;;;;;;5119389;27;20019;-79
2021/08/15 06:49:09;;;;;;;10.20;7.20;;;19.50;74.60;;;;;;5137301;27;20026;-78
2021/08/15 06:51:34;;;;;;;9.68;7.00;;;19.50;74.60;;;;;;5137201;27;20024;-78
2021/08/15 06:54:00;;;;;;;7.68;6.50;;;19.50;74.60;;;;;;5118743;27;20059;-78
2021/08/15 06:56:25;;;;;;;10.15;6.38;;;19.60;74.40;;;;;;5118724;27;20087;-78
2021/08/15 07:02:13;;;;;;;9.70;6.28;;;19.70;74.30;;;;;;5137350;27;20485;-78
2021/08/15 07:04:39;;;;;;;9.13;6.65;;;19.70;74.20;;;;;;5118478;27;20015;-78
2021/08/15 07:07:04;;;;;;;9.02;6.88;;;19.80;74.20;;;;;;5118493;27;20076;-78
2021/08/15 07:09:30;;;;;;;9.98;7.72;;;19.80;74.20;;;;;;5136806;27;20027;-78
2021/08/15 07:11:55;;;;;;;8.10;6.88;;;19.80;74.20;;;;;;5136910;27;20102;-77
2021/08/15 07:14:21;;;;;;;9.50;6.72;;;19.80;74.30;;;;;;5118255;27;20049;-77
2021/08/15 07:20:09;;;;;;;8.68;6.35;;;19.90;74.20;;;;;;5136691;27;20041;-78
2021/08/15 07:22:34;;;;;;;7.78;5.93;;;20.00;74.00;;;;;;5117879;27;20034;-77
2021/08/15 07:25:01;;;;;;;9.02;5.93;;;20.10;74.00;;;;;;5136467;27;20019;-77
2021/08/15 07:27:27;;;;;;;7.18;6.00;;;20.20;74.00;;;;;;5118072;27;20026;-77
2021/08/15 07:29:53;;;;;;;8.70;6.13;;;20.20;73.90;;;;;;5136373;27;20023;-77
2021/08/15 07:32:18;;;;;;;7.35;6.40;;;20.20;73.80;;;;;;5118090;27;20053;-77
2021/08/15 07:34:44;;;;;;;7.00;5.78;;;20.20;73.70;;;;;;5117735;27;20435;-77
2021/08/15 07:37:09;;;;;;;6.93;5.78;;;20.30;73.70;;;;;;5117954;27;20016;-76
2021/08/15 07:39:35;;;;;;;6.72;5.07;;;20.30;73.50;;;;;;5136091;27;20054;-79
2021/08/15 07:42:01;;;;;;;7.15;5.80;;;20.40;73.30;;;;;;5136219;27;20015;-79
2021/08/15 07:44:26;;;;;;;7.60;5.47;;;20.50;73.10;;;;;;5117506;27;20508;-79
2021/08/15 07:46:52;;;;;;;9.02;6.60;;;20.60;72.80;;;;;;5117697;27;20015;-79
2021/08/15 07:49:18;;;;;;;8.75;5.65;;;20.70;72.50;;;;;;5117695;27;20019;-78
2021/08/15 07:51:44;;;;;;;7.78;5.05;;;20.70;72.30;;;;;;5117838;27;20019;-78
2021/08/15 07:54:10;;;;;;;6.75;5.30;;;20.80;72.10;;;;;;5117937;27;20031;-78
2021/08/15 07:56:35;;;;;;;6.28;4.93;;;20.80;71.80;;;;;;5117495;27;20497;-78
2021/08/15 07:59:01;;;;;;;7.53;5.55;;;20.90;71.60;;;;;;5117272;27;20106;-78
2021/08/15 08:01:27;;;;;;;6.32;4.82;;;21.00;71.40;;;;;;5117341;27;20064;-78
2021/08/15 08:03:53;;;;;;;7.90;5.55;;;21.10;71.20;;;;;;5117342;27;20022;-78
2021/08/15 08:06:18;;;;;;;6.18;4.35;;;21.20;70.90;;;;;;5117468;27;20030;-78
2021/08/15 08:08:44;;;;;;;6.40;4.45;;;21.30;70.50;;;;;;5117224;27;20056;-79
2021/08/15 08:11:09;;;;;;;6.30;4.30;;;21.30;70.10;;;;;;5135744;27;20024;-78
2021/08/15 08:13:35;;;;;;;7.95;4.97;;;21.40;69.90;;;;;;5135738;27;20076;-79
2021/08/15 08:16:01;;;;;;;8.50;5.10;;;21.40;69.30;;;;;;5117077;27;20023;-79
2021/08/15 08:18:27;;;;;;;5.85;4.63;;;21.30;69.10;;;;;;5117227;27;20015;-78
2021/08/15 08:20:53;;;;;;;6.03;4.40;;;21.30;69.00;;;;;;5117056;27;20020;-78
2021/08/15 08:23:19;;;;;;;7.93;5.10;;;21.30;69.00;;;;;;5116835;27;20112;-76
2021/08/15 08:25:45;;;;;;;6.22;4.97;;;21.30;68.90;;;;;;5116980;27;20027;-75
2021/08/15 08:28:12;;;;;;;7.93;4.75;;;21.20;68.80;;;;;;5135322;27;20019;-74
2021/08/15 08:30:38;;;;;;;6.50;4.80;;;21.20;68.80;;;;;;5116933;27;20073;-74
2021/08/15 08:33:04;;;;;;;7.57;4.97;;;21.20;68.90;;;;;;5115570;27;20057;-76
2021/08/15 08:35:31;;;;;;;10.35;5.50;;;21.20;68.90;;;;;;5116703;27;20104;-75
2021/08/15 08:37:56;;;;;;;7.32;5.03;;;21.20;68.80;;;;;;5116515;27;20030;-75
2021/08/15 08:40:22;;;;;;;8.77;5.82;;;21.30;68.80;;;;;;5116537;27;20047;-81
2021/08/15 08:42:49;;;;;;;7.30;5.18;;;21.30;68.60;;;;;;5116537;27;20022;-80
2021/08/15 08:45:19;;;;;;;8.15;5.03;;;21.30;68.50;;;;;;5116789;27;20019;-83
2021/08/15 08:47:47;;;;;;;8.07;5.20;;;21.40;68.50;;;;;;5117116;27;20019;-79
2021/08/15 08:50:13;;;;;;;7.43;4.40;;;21.50;68.40;;;;;;5116311;27;20038;-75
2021/08/15 08:52:40;;;;;;;8.90;5.18;;;21.60;68.10;;;;;;5116318;27;20118;-75
2021/08/15 08:55:06;;;;;;;6.22;4.15;;;21.70;68.00;;;;;;5116123;27;20088;-74
2021/08/15 08:57:34;;;;;;;6.90;4.03;;;21.70;68.00;;;;;;5116215;27;20118;-77
2021/08/15 09:00:05;;;;;;;7.10;3.60;;;21.70;67.90;;;;;;5115871;27;20023;-77
2021/08/15 09:02:36;;;;;;;5.70;3.67;;;21.80;67.80;;;;;;5135115;27;20072;-77
2021/08/15 09:05:06;;;;;;;4.68;3.55;;;21.90;67.70;;;;;;5115982;27;20497;-79
2021/08/15 09:07:37;;;;;;;5.95;3.40;;;22.00;67.20;;;;;;5116095;27;20023;-77
2021/08/15 09:10:06;;;;;;;7.88;3.63;;;22.00;67.00;;;;;;5134506;27;20074;-77
2021/08/15 09:12:40;;;;;;;8.70;4.22;;;22.00;66.80;;;;;;5116136;27;20445;-77
2021/08/15 09:15:15;;;;;;;6.47;4.03;;;22.00;66.70;;;;;;5116027;27;20035;-77
2021/08/15 09:17:42;;;;;;;6.35;3.58;;;22.00;66.80;;;;;;5115809;27;20035;-77
2021/08/15 09:20:35;;;;;;;5.80;3.88;;;22.00;66.60;;;;;;5070165;28;20414;-74
2021/08/15 09:23:19;;;;;;;6.80;3.95;;;22.00;66.50;;;;;;5068665;28;20024;-74
2021/08/15 09:25:46;;;;;;;5.90;3.75;;;22.10;66.50;;;;;;5068618;28;20029;-80
2021/08/15 09:28:14;;;;;;;5.30;3.75;;;22.10;66.20;;;;;;5068734;28;20043;-78
2021/08/15 09:30:40;;;;;;;8.13;3.97;;;22.20;66.10;;;;;;5068601;28;20033;-76
2021/08/15 09:33:08;;;;;;;6.82;3.47;;;22.30;66.00;;;;;;5068600;28;20031;-78
2021/08/15 09:35:40;;;;;;;6.65;3.70;;;22.30;65.90;;;;;;5068563;28;20028;-79
2021/08/15 09:38:18;;;;;;;7.57;4.00;;;22.40;65.70;;;;;;5068476;28;20040;-76
2021/08/15 09:40:47;;;;;;;5.65;3.00;;;22.60;65.40;;;;;;5069762;28;20028;-79
2021/08/15 09:43:17;;;;;;;5.72;3.45;;;22.60;65.20;;;;;;5069652;28;20127;-76
2021/08/15 09:45:52;;;;;;;6.28;3.00;;;22.60;64.90;;;;;;5048255;28;20124;-78
2021/08/15 09:48:36;;;;;;;5.72;3.20;;;22.70;64.90;;;;;;5049580;28;20104;-78
2021/08/15 09:51:21;;;;;;;6.22;3.45;;;22.80;64.70;;;;;;5048406;28;20512;-79
2021/08/15 09:53:49;;;;;;;4.82;3.05;;;22.80;64.60;;;;;;5049342;28;20371;-77
2021/08/15 09:56:16;;;;;;;6.28;3.00;;;22.80;64.50;;;;;;5048137;28;20082;-78
2021/08/15 09:58:42;;;;;;;5.28;2.95;;;22.90;64.40;;;;;;5048973;28;20079;-78
2021/08/15 10:01:09;;;;;;;6.10;3.28;;;23.00;64.40;;;;;;5049310;28;20084;-78
2021/08/15 10:03:41;;;;;;;4.70;2.90;;;23.00;64.00;;;;;;5048030;28;20558;-78
2021/08/15 10:06:12;;;;;;;5.68;2.95;;;23.10;64.10;;;;;;5048122;28;20124;-80
2021/08/15 10:08:38;;;;;;;4.65;3.08;;;23.00;63.30;;;;;;5048098;28;20489;-78
2021/08/15 10:11:06;;;;;;;5.80;2.80;;;23.00;63.20;;;;;;5047858;28;20029;-79
2021/08/15 10:13:32;;;;;;;5.28;2.83;;;23.00;62.90;;;;;;5048151;28;20509;-79
2021/08/15 10:16:02;;;;;;;3.80;2.80;;;23.10;62.90;;;;;;5047685;28;20037;-80
2021/08/15 10:18:30;;;;;;;4.30;2.70;;;23.10;62.50;;;;;;5047698;28;20033;-80
2021/08/15 10:21:15;;;;;;;4.47;3.05;;;23.10;61.90;;;;;;5047722;28;20090;-80
2021/08/15 10:23:43;;;;;;;5.35;2.80;;;23.20;61.60;;;;;;5047786;28;20496;-80
2021/08/15 10:26:26;;;;;;;6.32;2.80;;;23.20;61.70;;;;;;5048046;28;20032;-79
2021/08/15 10:32:20;;;;;;;3.78;2.58;;;23.20;61.60;;;;;;5035655;28;20048;-78
2021/08/15 10:34:49;;;;;;;4.93;2.50;;;23.20;61.60;;;;;;5034444;28;20108;-78
2021/08/15 10:37:27;;;;;;;4.53;1.90;;;23.20;60.80;;;;;;5034298;28;20037;-78
2021/08/15 10:40:04;;;;;;;3.72;2.33;;;23.30;60.30;;;;;;5033964;28;20037;-79
2021/08/15 10:42:39;;;;;;;3.00;1.83;;;23.40;59.40;;;;;;5035425;28;20064;-78
2021/08/15 10:45:18;;;;;;;7.05;2.25;;;23.40;58.70;;;;;;5033787;28;20060;-79
2021/08/15 10:48:09;;;;;;;6.32;2.40;;;23.50;58.30;;;;;;5034102;28;20033;-79
2021/08/15 10:51:00;;;;;;;2.60;1.90;;;23.50;57.90;;;;;;5034905;28;20480;-79
2021/08/15 10:53:29;;;;;;;4.28;2.38;;;23.50;58.10;;;;;;5031714;28;20063;-79
2021/08/15 10:55:55;;;;;;;4.05;2.45;;;23.50;58.00;;;;;;5033632;28;20069;-79
2021/08/15 10:58:43;;;;;;;3.80;2.22;;;23.50;58.10;;;;;;5035344;28;20037;-78
2021/08/15 11:01:11;;;;;;;2.70;2.10;;;23.60;57.50;;;;;;5033852;28;20039;-78
2021/08/15 11:03:38;;;;;;;4.72;2.40;;;23.60;57.50;;;;;;5035106;28;20060;-78
2021/08/15 11:06:24;;;;;;;2.97;2.30;;;23.70;57.20;;;;;;5033455;28;20405;-78
2021/08/15 11:08:53;;;;;;;3.08;2.25;;;23.80;57.20;;;;;;5034913;28;20040;-79
2021/08/15 11:11:33;;;;;;;4.80;2.17;;;23.90;57.40;;;;;;5033635;28;20503;-79
2021/08/15 11:14:17;;;;;;;2.80;1.92;;;24.00;57.40;;;;;;5033577;28;20124;-79
2021/08/15 11:16:47;;;;;;;3.38;2.20;;;24.10;57.40;;;;;;5033524;28;20033;-79
2021/08/15 11:19:16;;;;;;;3.10;2.13;;;24.30;57.40;;;;;;5033113;28;20052;-78
2021/08/15 11:22:04;;;;;;;2.92;1.88;;;24.40;57.30;;;;;;5033454;28;20029;-78
2021/08/15 11:24:44;;;;;;;2.85;2.00;;;24.50;57.20;;;;;;5033202;28;20502;-79
2021/08/15 11:27:28;;;;;;;3.40;1.90;;;24.60;56.80;;;;;;5033341;28;20029;-78
2021/08/15 11:29:54;;;;;;;2.42;1.70;;;24.70;56.30;;;;;;5033351;28;20112;-78
2021/08/15 11:32:29;;;;;;;2.20;1.67;;;24.80;56.20;;;;;;5032944;28;20025;-78
2021/08/15 11:35:01;;;;;;;3.75;1.73;;;24.90;56.10;;;;;;5032934;28;20033;-78
2021/08/15 11:37:29;;;;;;;2.55;1.70;;;24.90;55.30;;;;;;5034242;28;20041;-78
2021/08/15 11:39:56;;;;;;;2.85;1.80;;;24.90;55.00;;;;;;5032903;28;20033;-78
2021/08/15 11:42:24;;;;;;;2.85;1.90;;;24.90;55.30;;;;;;5032072;28;20496;-78
2021/08/15 11:44:59;;;;;;;2.95;1.70;;;24.90;55.40;;;;;;5032919;28;20025;-78
2021/08/15 11:47:28;;;;;;;2.53;1.80;;;25.00;55.50;;;;;;5034135;28;20618;-78
2021/08/15 11:49:55;;;;;;;3.30;1.70;;;25.10;55.60;;;;;;5032964;28;20025;-78
2021/08/15 11:52:23;;;;;;;2.47;1.60;;;25.10;55.70;;;;;;5032692;28;20091;-78
2021/08/15 11:54:51;;;;;;;3.10;2.25;;;25.10;55.80;;;;;;5032667;28;20504;-78
2021/08/15 11:57:17;;;;;;;3.85;2.13;;;25.10;56.00;;;;;;5032518;28;20124;-78
2021/08/15 11:59:46;;;;;;;2.67;1.60;;;25.10;56.20;;;;;;5032623;28;20116;-79
2021/08/15 12:02:20;;;;;;;3.03;1.90;;;25.10;56.30;;;;;;5032629;28;20022;-79
2021/08/15 12:04:48;;;;;;;3.67;1.92;;;25.10;56.50;;;;;;5032496;28;20038;-79
2021/08/15 12:07:26;;;;;;;3.38;1.92;;;25.30;56.80;;;;;;5032477;28;20029;-79
2021/08/15 12:10:24;;;;;;;3.60;2.00;;;25.30;56.70;;;;;;5033761;28;20485;-79
2021/08/15 12:13:10;;;;;;;1.83;1.50;;;25.40;56.80;;;;;;5032461;28;20025;-78
2021/08/15 12:15:36;;;;;;;2.75;1.58;;;25.50;56.80;;;;;;5032314;28;20063;-79
2021/08/15 12:18:02;;;;;;;1.92;1.50;;;25.60;56.60;;;;;;5032047;28;20025;-79
2021/08/15 12:20:28;;;;;;;2.88;1.48;;;25.60;56.60;;;;;;5032228;28;20052;-79
2021/08/15 12:23:03;;;;;;;2.55;1.40;;;25.60;56.70;;;;;;5033540;28;20037;-79
2021/08/15 12:25:29;;;;;;;2.40;1.73;;;25.60;56.70;;;;;;5033532;28;20103;-79
2021/08/15 12:28:05;;;;;;;1.98;1.50;;;25.60;57.00;;;;;;5032353;28;20063;-78
2021/08/15 12:30:31;;;;;;;3.88;1.88;;;25.60;57.10;;;;;;5032234;28;20450;-79
2021/08/15 12:32:56;;;;;;;2.80;1.45;;;25.70;57.20;;;;;;5033469;28;20061;-79
2021/08/15 12:35:26;;;;;;;2.55;1.30;;;25.70;57.20;;;;;;5033262;28;20025;-79
2021/08/15 12:37:55;;;;;;;1.90;1.48;;;25.70;57.40;;;;;;5062552;28;20025;-78
2021/08/15 12:40:32;;;;;;;2.33;1.48;;;25.70;57.60;;;;;;5031945;28;20021;-79
2021/08/15 12:43:04;;;;;;;2.38;1.30;;;25.80;57.70;;;;;;5032040;28;20025;-79
2021/08/15 12:45:39;;;;;;;3.05;1.40;;;25.90;57.20;;;;;;5031789;28;20367;-79
2021/08/15 12:48:07;;;;;;;2.25;1.50;;;25.90;56.80;;;;;;5031909;28;20033;-78
2021/08/15 12:50:34;;;;;;;2.92;1.58;;;25.90;56.70;;;;;;5031755;28;20030;-79
2021/08/15 12:53:14;;;;;;;2.08;1.40;;;25.90;56.70;;;;;;5031542;28;20469;-79
2021/08/15 12:55:42;;;;;;;2.05;1.40;;;25.90;56.80;;;;;;5031892;28;20492;-79
2021/08/15 12:58:12;;;;;;;2.38;1.45;;;25.80;57.00;;;;;;5031605;28;20428;-78
2021/08/15 13:00:45;;;;;;;1.40;1.27;;;25.80;57.20;;;;;;5031805;28;20021;-79
2021/08/15 13:03:16;;;;;;;1.50;1.40;;;25.90;57.40;;;;;;5031680;28;20103;-79
2021/08/15 13:05:43;;;;;;;2.28;1.50;;;26.00;57.50;;;;;;5031611;28;20276;-79
2021/08/15 13:08:11;;;;;;;1.63;1.30;;;26.00;57.40;;;;;;5031374;28;20124;-79
2021/08/15 13:10:37;;;;;;;1.60;1.20;;;26.10;57.40;;;;;;5032646;28;20057;-79
2021/08/15 13:16:25;;;;;;;2.35;1.30;;;26.10;57.40;;;;;;5032833;28;20062;-79